Aérodrome :
LOGIN :

S'inscrire | Disclaimer

   EN    FR    IT 

 










Légende :    VFR   VFR Marginal   IFR   IFR Intensif   IFR Très Intensif
Visi : 
Plafond : 
>= 8 km
>= 3000ft
5 à 8 km
1000 à 3000 ft
1500m à 5 km
500 à 1000 ft
800 à 1500m
200 à 500 ft
< 800m
< 200 ft
Symboles :   Orages  Brouillard  Fortes neiges  Fortes précipitations  Vent > 20 kt
SIGMETs :   Divers  Orages  Givrage  Turbulence  Onde Orograph.  Cendres Volcan.







- Altitude de l'aérodrome : 74 ft
- Code IATA : EIN


EHEH - Eindhoven

DERNIER METAR :
  • 131625Z AUTO 05008KT 9999 NCD 01/M02 Q1020 BLU 06008KT CAVOK

METARs EXPIRÉS :
  • 131555Z AUTO 06008KT 030V090 9999 NCD 02/M02 Q1020 BLU 07010KT 9999 FEW025
  • 131525Z AUTO 05009KT 030V090 9999 NCD 02/M02 Q1020 BLU 07010KT 9999 FEW025
  • 131455Z AUTO 06009KT 360V090 9999 NCD 03/M02 Q1020 BLU 07010KT 9999 FEW025
  • 131430Z AUTO 07010KT 040V140 9999 FEW025 03/M02 Q1020 BLU 07010KT 9999 FEW025
  • 131425Z AUTO 07008KT 050V110 9999 SCT024 03/M02 Q1020 WHT 08010KT 9999 FEW020
  • 131403Z AUTO 07009KT 9999 FEW023 03/M02 Q1020 BLU 08010KT 9999 FEW020
  • 131355Z AUTO 09008KT 050V110 9999 FEW024 03/M02 Q1020 BLU 08010KT 9999 FEW020
  • 131346Z AUTO 08008KT 050V110 9999 FEW023 03/M02 Q1020 BLU 08010KT 9999 FEW020
  • 131340Z AUTO 07009KT 040V110 9999 SCT023 BKN026 03/M02 Q1020 WHT 08010KT 9999 FEW020

TAF TAF EHEH
Valide du 13 à 12h jusqu'au 14 à 18h UTC


131102Z 1312/1418 07008KT 9999 FEW015
PROB30 1402/1409 7000 BKN012
Pas de NOTAMs connus pour ce terrain.



MET'MAP, la Météo Aéronautique d'un coup d'oeil ! - Copyright ORBIFLY Décembre 2007 - Disclaimer

ORBIFLY MET'MAP TEAM :

Programmation & Développement : Alexandra Zaïnal
Conception & Développement : Baudouin d'Aumeries
Co-Programmation & Développement : Marc-Olivier Méhu
Soutien technique & logistique : Manuel Goepfert

Contact : metmap@orbifly.com




SOURCES & CREDITS :

   NOAA